sensor_id;sensor_type;location;lat;lon;timestamp;temperature;humidity
73112;HTU21D;61301;51.956;5.876;2023-03-23T00:01:02;15.99;62.41
73112;HTU21D;61301;51.956;5.876;2023-03-23T00:03:29;16.03;62.22
73112;HTU21D;61301;51.956;5.876;2023-03-23T00:05:58;16.15;61.83
73112;HTU21D;61301;51.956;5.876;2023-03-23T00:08:36;16.08;61.90
73112;HTU21D;61301;51.956;5.876;2023-03-23T00:11:18;16.05;61.92
73112;HTU21D;61301;51.956;5.876;2023-03-23T00:13:46;16.11;61.90
73112;HTU21D;61301;51.956;5.876;2023-03-23T00:16:13;16.14;61.70
73112;HTU21D;61301;51.956;5.876;2023-03-23T00:21:11;16.31;61.07
73112;HTU21D;61301;51.956;5.876;2023-03-23T00:23:37;16.36;60.74
73112;HTU21D;61301;51.956;5.876;2023-03-23T00:26:04;16.36;60.84
73112;HTU21D;61301;51.956;5.876;2023-03-23T00:28:30;16.35;60.80
73112;HTU21D;61301;51.956;5.876;2023-03-23T00:31:05;16.24;61.12
73112;HTU21D;61301;51.956;5.876;2023-03-23T00:33:35;16.19;61.18
73112;HTU21D;61301;51.956;5.876;2023-03-23T00:36:11;16.25;60.90
73112;HTU21D;61301;51.956;5.876;2023-03-23T00:38:39;16.24;60.98
73112;HTU21D;61301;51.956;5.876;2023-03-23T00:41:05;16.24;61.01
73112;HTU21D;61301;51.956;5.876;2023-03-23T00:43:33;16.20;61.00
73112;HTU21D;61301;51.956;5.876;2023-03-23T00:46:02;16.29;60.78
73112;HTU21D;61301;51.956;5.876;2023-03-23T00:48:37;16.17;61.01
73112;HTU21D;61301;51.956;5.876;2023-03-23T00:51:11;16.08;61.27
73112;HTU21D;61301;51.956;5.876;2023-03-23T00:53:40;16.12;61.09
73112;HTU21D;61301;51.956;5.876;2023-03-23T00:56:07;16.25;60.85
73112;HTU21D;61301;51.956;5.876;2023-03-23T00:58:34;16.21;61.03
73112;HTU21D;61301;51.956;5.876;2023-03-23T01:01:01;16.33;60.67
73112;HTU21D;61301;51.956;5.876;2023-03-23T01:03:27;16.24;60.85
73112;HTU21D;61301;51.956;5.876;2023-03-23T01:05:54;16.19;61.04
73112;HTU21D;61301;51.956;5.876;2023-03-23T01:08:22;16.41;60.45
73112;HTU21D;61301;51.956;5.876;2023-03-23T01:10:49;16.31;60.47
73112;HTU21D;61301;51.956;5.876;2023-03-23T01:13:16;16.42;60.30
73112;HTU21D;61301;51.956;5.876;2023-03-23T01:15:42;16.39;60.35
73112;HTU21D;61301;51.956;5.876;2023-03-23T01:18:09;16.42;60.35
73112;HTU21D;61301;51.956;5.876;2023-03-23T01:20:36;16.44;60.44
73112;HTU21D;61301;51.956;5.876;2023-03-23T01:23:03;16.33;60.43
73112;HTU21D;61301;51.956;5.876;2023-03-23T01:25:30;16.37;60.32
73112;HTU21D;61301;51.956;5.876;2023-03-23T01:27:58;16.24;60.77
73112;HTU21D;61301;51.956;5.876;2023-03-23T01:30:25;16.25;60.64
73112;HTU21D;61301;51.956;5.876;2023-03-23T01:32:52;16.26;60.53
73112;HTU21D;61301;51.956;5.876;2023-03-23T01:35:19;16.35;60.20
73112;HTU21D;61301;51.956;5.876;2023-03-23T01:37:46;16.43;59.83
73112;HTU21D;61301;51.956;5.876;2023-03-23T01:40:14;16.39;59.96
73112;HTU21D;61301;51.956;5.876;2023-03-23T01:42:41;16.51;59.68
73112;HTU21D;61301;51.956;5.876;2023-03-23T01:45:24;16.52;59.01
73112;HTU21D;61301;51.956;5.876;2023-03-23T01:48:05;16.51;58.76
73112;HTU21D;61301;51.956;5.876;2023-03-23T01:50:47;16.57;58.64
73112;HTU21D;61301;51.956;5.876;2023-03-23T01:53:18;16.60;58.45
73112;HTU21D;61301;51.956;5.876;2023-03-23T01:55:44;16.52;58.67
73112;HTU21D;61301;51.956;5.876;2023-03-23T01:58:14;16.50;58.99
73112;HTU21D;61301;51.956;5.876;2023-03-23T02:00:41;16.49;59.32
73112;HTU21D;61301;51.956;5.876;2023-03-23T02:03:10;16.49;59.55
73112;HTU21D;61301;51.956;5.876;2023-03-23T02:05:40;16.59;59.32
73112;HTU21D;61301;51.956;5.876;2023-03-23T02:08:14;16.59;59.54
73112;HTU21D;61301;51.956;5.876;2023-03-23T02:10:41;16.54;59.77
73112;HTU21D;61301;51.956;5.876;2023-03-23T02:13:09;16.51;59.99
73112;HTU21D;61301;51.956;5.876;2023-03-23T02:15:50;16.52;59.99
73112;HTU21D;61301;51.956;5.876;2023-03-23T02:24:00;16.49;60.21
73112;HTU21D;61301;51.956;5.876;2023-03-23T02:35:03;16.45;60.45
73112;HTU21D;61301;51.956;5.876;2023-03-23T02:37:36;16.51;60.17
73112;HTU21D;61301;51.956;5.876;2023-03-23T02:40:30;16.48;60.33
73112;HTU21D;61301;51.956;5.876;2023-03-23T02:42:56;16.49;60.38
73112;HTU21D;61301;51.956;5.876;2023-03-23T02:45:24;16.44;60.49
73112;HTU21D;61301;51.956;5.876;2023-03-23T02:47:54;16.39;60.57
73112;HTU21D;61301;51.956;5.876;2023-03-23T02:50:24;16.46;60.37
73112;HTU21D;61301;51.956;5.876;2023-03-23T02:52:53;16.46;60.45
73112;HTU21D;61301;51.956;5.876;2023-03-23T02:55:21;16.52;60.16
73112;HTU21D;61301;51.956;5.876;2023-03-23T02:57:52;16.52;60.26
73112;HTU21D;61301;51.956;5.876;2023-03-23T03:00:19;16.56;60.15
73112;HTU21D;61301;51.956;5.876;2023-03-23T03:02:51;16.52;60.09
73112;HTU21D;61301;51.956;5.876;2023-03-23T03:11:16;16.48;60.21
73112;HTU21D;61301;51.956;5.876;2023-03-23T03:14:04;16.45;60.13
73112;HTU21D;61301;51.956;5.876;2023-03-23T03:16:40;16.43;60.22
73112;HTU21D;61301;51.956;5.876;2023-03-23T03:21:53;16.57;59.87
73112;HTU21D;61301;51.956;5.876;2023-03-23T03:24:27;16.49;59.90
73112;HTU21D;61301;51.956;5.876;2023-03-23T03:26:56;16.49;59.80
73112;HTU21D;61301;51.956;5.876;2023-03-23T03:29:56;16.54;59.73
73112;HTU21D;61301;51.956;5.876;2023-03-23T03:32:31;16.54;59.73
73112;HTU21D;61301;51.956;5.876;2023-03-23T03:35:03;16.64;59.61
73112;HTU21D;61301;51.956;5.876;2023-03-23T03:37:36;16.62;59.66
73112;HTU21D;61301;51.956;5.876;2023-03-23T03:40:09;16.56;59.81
73112;HTU21D;61301;51.956;5.876;2023-03-23T03:42:40;16.64;59.60
73112;HTU21D;61301;51.956;5.876;2023-03-23T03:45:09;16.61;59.67
73112;HTU21D;61301;51.956;5.876;2023-03-23T03:47:36;16.49;59.88
73112;HTU21D;61301;51.956;5.876;2023-03-23T03:50:03;16.49;59.86
73112;HTU21D;61301;51.956;5.876;2023-03-23T03:52:29;16.36;60.22
73112;HTU21D;61301;51.956;5.876;2023-03-23T03:54:55;16.48;59.95
73112;HTU21D;61301;51.956;5.876;2023-03-23T03:57:22;16.49;59.80
73112;HTU21D;61301;51.956;5.876;2023-03-23T04:00:18;16.52;59.69
73112;HTU21D;61301;51.956;5.876;2023-03-23T04:02:48;16.33;60.25
73112;HTU21D;61301;51.956;5.876;2023-03-23T04:05:18;16.36;60.14
73112;HTU21D;61301;51.956;5.876;2023-03-23T04:07:48;16.41;59.99
73112;HTU21D;61301;51.956;5.876;2023-03-23T04:10:19;16.35;60.10
73112;HTU21D;61301;51.956;5.876;2023-03-23T04:12:48;16.40;59.87
73112;HTU21D;61301;51.956;5.876;2023-03-23T04:15:46;16.42;59.71
73112;HTU21D;61301;51.956;5.876;2023-03-23T04:18:14;16.44;59.51
73112;HTU21D;61301;51.956;5.876;2023-03-23T04:20:42;16.46;59.48
73112;HTU21D;61301;51.956;5.876;2023-03-23T04:23:10;16.48;59.32
73112;HTU21D;61301;51.956;5.876;2023-03-23T04:25:36;16.45;59.38
73112;HTU21D;61301;51.956;5.876;2023-03-23T04:28:04;16.40;59.53
73112;HTU21D;61301;51.956;5.876;2023-03-23T04:30:38;16.48;59.25
73112;HTU21D;61301;51.956;5.876;2023-03-23T04:33:07;16.39;58.94
73112;HTU21D;61301;51.956;5.876;2023-03-23T04:35:33;16.60;58.45
73112;HTU21D;61301;51.956;5.876;2023-03-23T04:38:17;16.66;58.24
73112;HTU21D;61301;51.956;5.876;2023-03-23T04:40:52;16.65;58.39
73112;HTU21D;61301;51.956;5.876;2023-03-23T04:43:39;16.58;58.23
73112;HTU21D;61301;51.956;5.876;2023-03-23T04:46:25;16.59;58.06
73112;HTU21D;61301;51.956;5.876;2023-03-23T04:48:54;16.71;57.82
73112;HTU21D;61301;51.956;5.876;2023-03-23T04:51:28;16.69;57.77
73112;HTU21D;61301;51.956;5.876;2023-03-23T04:53:54;16.51;57.93
73112;HTU21D;61301;51.956;5.876;2023-03-23T04:56:23;16.61;57.57
73112;HTU21D;61301;51.956;5.876;2023-03-23T04:58:51;16.59;57.58
73112;HTU21D;61301;51.956;5.876;2023-03-23T05:01:35;16.59;57.48
73112;HTU21D;61301;51.956;5.876;2023-03-23T05:04:16;16.69;57.20
73112;HTU21D;61301;51.956;5.876;2023-03-23T05:06:49;16.60;57.21
73112;HTU21D;61301;51.956;5.876;2023-03-23T05:09:22;16.63;57.14
73112;HTU21D;61301;51.956;5.876;2023-03-23T05:11:49;16.65;56.90
73112;HTU21D;61301;51.956;5.876;2023-03-23T05:14:15;16.49;56.86
73112;HTU21D;61301;51.956;5.876;2023-03-23T05:16:45;16.63;56.86
73112;HTU21D;61301;51.956;5.876;2023-03-23T05:19:15;16.48;56.99
73112;HTU21D;61301;51.956;5.876;2023-03-23T05:21:41;16.59;56.53
73112;HTU21D;61301;51.956;5.876;2023-03-23T05:24:07;16.58;56.61
73112;HTU21D;61301;51.956;5.876;2023-03-23T05:26:34;16.54;56.67
73112;HTU21D;61301;51.956;5.876;2023-03-23T05:29:06;16.63;56.47
73112;HTU21D;61301;51.956;5.876;2023-03-23T05:31:45;16.59;56.55
73112;HTU21D;61301;51.956;5.876;2023-03-23T05:34:12;16.61;56.49
73112;HTU21D;61301;51.956;5.876;2023-03-23T05:36:47;16.50;56.71
73112;HTU21D;61301;51.956;5.876;2023-03-23T05:39:31;16.57;56.69
73112;HTU21D;61301;51.956;5.876;2023-03-23T05:42:13;16.60;56.70
73112;HTU21D;61301;51.956;5.876;2023-03-23T05:44:54;16.52;56.79
73112;HTU21D;61301;51.956;5.876;2023-03-23T05:47:21;16.46;56.88
73112;HTU21D;61301;51.956;5.876;2023-03-23T05:49:53;16.45;57.04
73112;HTU21D;61301;51.956;5.876;2023-03-23T05:52:20;16.50;56.97
73112;HTU21D;61301;51.956;5.876;2023-03-23T05:54:47;16.64;56.61
73112;HTU21D;61301;51.956;5.876;2023-03-23T05:57:13;16.58;56.73
73112;HTU21D;61301;51.956;5.876;2023-03-23T05:59:50;16.64;56.49
73112;HTU21D;61301;51.956;5.876;2023-03-23T06:02:21;16.62;56.74
73112;HTU21D;61301;51.956;5.876;2023-03-23T06:04:51;16.70;56.46
73112;HTU21D;61301;51.956;5.876;2023-03-23T06:07:26;16.62;56.80
73112;HTU21D;61301;51.956;5.876;2023-03-23T06:09:58;16.70;56.67
73112;HTU21D;61301;51.956;5.876;2023-03-23T06:12:24;16.61;56.96
73112;HTU21D;61301;51.956;5.876;2023-03-23T06:15:08;16.56;57.02
73112;HTU21D;61301;51.956;5.876;2023-03-23T06:17:53;16.62;57.06
73112;HTU21D;61301;51.956;5.876;2023-03-23T06:20:23;16.54;57.25
73112;HTU21D;61301;51.956;5.876;2023-03-23T06:22:51;16.65;57.11
73112;HTU21D;61301;51.956;5.876;2023-03-23T06:25:41;16.51;57.06
73112;HTU21D;61301;51.956;5.876;2023-03-23T06:28:09;16.48;57.36
73112;HTU21D;61301;51.956;5.876;2023-03-23T06:30:40;16.55;57.35
73112;HTU21D;61301;51.956;5.876;2023-03-23T06:33:08;16.55;57.39
73112;HTU21D;61301;51.956;5.876;2023-03-23T06:35:53;16.61;57.32
73112;HTU21D;61301;51.956;5.876;2023-03-23T06:38:45;16.58;57.24
73112;HTU21D;61301;51.956;5.876;2023-03-23T06:41:13;16.57;57.27
73112;HTU21D;61301;51.956;5.876;2023-03-23T06:43:39;16.49;57.46
73112;HTU21D;61301;51.956;5.876;2023-03-23T06:46:12;16.48;57.48
73112;HTU21D;61301;51.956;5.876;2023-03-23T06:48:40;16.45;57.72
73112;HTU21D;61301;51.956;5.876;2023-03-23T06:51:09;16.27;57.86
73112;HTU21D;61301;51.956;5.876;2023-03-23T06:53:37;16.41;57.55
73112;HTU21D;61301;51.956;5.876;2023-03-23T06:56:05;16.51;57.36
73112;HTU21D;61301;51.956;5.876;2023-03-23T06:58:34;16.48;57.59
73112;HTU21D;61301;51.956;5.876;2023-03-23T07:01:00;16.50;57.66
73112;HTU21D;61301;51.956;5.876;2023-03-23T07:03:37;16.49;57.55
73112;HTU21D;61301;51.956;5.876;2023-03-23T07:06:04;16.57;57.50
73112;HTU21D;61301;51.956;5.876;2023-03-23T07:08:38;16.63;57.45
73112;HTU21D;61301;51.956;5.876;2023-03-23T07:11:08;16.46;57.69
73112;HTU21D;61301;51.956;5.876;2023-03-23T07:13:37;16.42;57.89
73112;HTU21D;61301;51.956;5.876;2023-03-23T07:16:05;16.52;58.06
73112;HTU21D;61301;51.956;5.876;2023-03-23T07:18:32;16.62;58.01
73112;HTU21D;61301;51.956;5.876;2023-03-23T07:20:59;16.44;58.38
73112;HTU21D;61301;51.956;5.876;2023-03-23T07:23:30;16.48;58.32
73112;HTU21D;61301;51.956;5.876;2023-03-23T07:26:11;16.40;58.64
73112;HTU21D;61301;51.956;5.876;2023-03-23T07:28:41;16.40;58.75
73112;HTU21D;61301;51.956;5.876;2023-03-23T07:31:22;16.48;58.64
73112;HTU21D;61301;51.956;5.876;2023-03-23T07:33:48;16.28;58.22
73112;HTU21D;61301;51.956;5.876;2023-03-23T07:36:15;16.36;57.87
73112;HTU21D;61301;51.956;5.876;2023-03-23T07:38:43;16.47;57.34
73112;HTU21D;61301;51.956;5.876;2023-03-23T07:41:09;16.40;57.32
73112;HTU21D;61301;51.956;5.876;2023-03-23T07:43:38;16.30;56.53
73112;HTU21D;61301;51.956;5.876;2023-03-23T07:46:10;16.31;56.84
73112;HTU21D;61301;51.956;5.876;2023-03-23T07:48:45;16.21;57.48
73112;HTU21D;61301;51.956;5.876;2023-03-23T07:51:12;16.19;58.09
73112;HTU21D;61301;51.956;5.876;2023-03-23T07:53:38;16.11;58.88
73112;HTU21D;61301;51.956;5.876;2023-03-23T07:56:18;16.02;59.22
73112;HTU21D;61301;51.956;5.876;2023-03-23T07:58:50;16.05;59.88
73112;HTU21D;61301;51.956;5.876;2023-03-23T08:01:17;15.90;60.47
73112;HTU21D;61301;51.956;5.876;2023-03-23T08:03:57;15.82;61.02
73112;HTU21D;61301;51.956;5.876;2023-03-23T08:06:47;15.69;61.68
73112;HTU21D;61301;51.956;5.876;2023-03-23T08:09:39;15.60;62.15
73112;HTU21D;61301;51.956;5.876;2023-03-23T08:12:28;15.61;62.63
73112;HTU21D;61301;51.956;5.876;2023-03-23T08:15:06;15.53;63.15
73112;HTU21D;61301;51.956;5.876;2023-03-23T08:17:49;15.42;63.57
73112;HTU21D;61301;51.956;5.876;2023-03-23T08:20:37;15.48;63.50
73112;HTU21D;61301;51.956;5.876;2023-03-23T08:23:11;15.53;63.63
73112;HTU21D;61301;51.956;5.876;2023-03-23T08:26:00;15.66;63.67
73112;HTU21D;61301;51.956;5.876;2023-03-23T08:28:34;15.54;63.79
73112;HTU21D;61301;51.956;5.876;2023-03-23T08:31:19;15.56;63.50
73112;HTU21D;61301;51.956;5.876;2023-03-23T08:33:53;15.72;63.29
73112;HTU21D;61301;51.956;5.876;2023-03-23T08:36:35;15.77;62.63
73112;HTU21D;61301;51.956;5.876;2023-03-23T08:39:41;15.81;62.66
73112;HTU21D;61301;51.956;5.876;2023-03-23T08:42:11;15.83;62.37
73112;HTU21D;61301;51.956;5.876;2023-03-23T08:45:06;15.87;61.66
73112;HTU21D;61301;51.956;5.876;2023-03-23T08:47:36;15.92;61.84
73112;HTU21D;61301;51.956;5.876;2023-03-23T08:50:24;15.85;60.44
73112;HTU21D;61301;51.956;5.876;2023-03-23T08:53:09;15.91;60.76
73112;HTU21D;61301;51.956;5.876;2023-03-23T08:55:48;15.92;60.32
73112;HTU21D;61301;51.956;5.876;2023-03-23T08:58:15;15.85;59.93
73112;HTU21D;61301;51.956;5.876;2023-03-23T09:01:04;15.74;60.17
73112;HTU21D;61301;51.956;5.876;2023-03-23T09:03:44;15.76;60.12
73112;HTU21D;61301;51.956;5.876;2023-03-23T09:06:19;15.81;60.12
73112;HTU21D;61301;51.956;5.876;2023-03-23T09:08:45;15.86;59.57
73112;HTU21D;61301;51.956;5.876;2023-03-23T09:11:11;15.80;59.39
73112;HTU21D;61301;51.956;5.876;2023-03-23T09:13:38;15.81;59.41
73112;HTU21D;61301;51.956;5.876;2023-03-23T09:16:05;15.72;59.07
73112;HTU21D;61301;51.956;5.876;2023-03-23T09:18:32;15.75;59.12
73112;HTU21D;61301;51.956;5.876;2023-03-23T09:20:59;15.83;58.90
73112;HTU21D;61301;51.956;5.876;2023-03-23T09:23:25;15.86;57.95
73112;HTU21D;61301;51.956;5.876;2023-03-23T09:25:52;15.92;57.44
73112;HTU21D;61301;51.956;5.876;2023-03-23T09:28:19;15.92;57.63
73112;HTU21D;61301;51.956;5.876;2023-03-23T09:30:45;15.99;58.28
73112;HTU21D;61301;51.956;5.876;2023-03-23T09:33:13;16.06;57.71
73112;HTU21D;61301;51.956;5.876;2023-03-23T09:35:40;16.10;57.43
73112;HTU21D;61301;51.956;5.876;2023-03-23T09:38:09;16.20;57.67
73112;HTU21D;61301;51.956;5.876;2023-03-23T09:40:50;16.25;56.43
73112;HTU21D;61301;51.956;5.876;2023-03-23T09:43:39;16.24;56.97
73112;HTU21D;61301;51.956;5.876;2023-03-23T09:46:25;16.24;56.64
73112;HTU21D;61301;51.956;5.876;2023-03-23T09:48:59;16.42;56.61
73112;HTU21D;61301;51.956;5.876;2023-03-23T09:54:28;16.96;55.84
73112;HTU21D;61301;51.956;5.876;2023-03-23T09:56:55;17.01;54.19
73112;HTU21D;61301;51.956;5.876;2023-03-23T09:59:36;17.18;55.07
73112;HTU21D;61301;51.956;5.876;2023-03-23T10:02:15;17.37;54.60
73112;HTU21D;61301;51.956;5.876;2023-03-23T10:04:51;17.44;53.49
73112;HTU21D;61301;51.956;5.876;2023-03-23T10:07:20;17.40;52.14
73112;HTU21D;61301;51.956;5.876;2023-03-23T10:09:49;17.56;52.59
73112;HTU21D;61301;51.956;5.876;2023-03-23T10:12:36;17.60;51.59
73112;HTU21D;61301;51.956;5.876;2023-03-23T10:15:18;17.91;51.47
73112;HTU21D;61301;51.956;5.876;2023-03-23T10:18:15;18.04;51.21
73112;HTU21D;61301;51.956;5.876;2023-03-23T10:20:59;18.08;50.97
73112;HTU21D;61301;51.956;5.876;2023-03-23T10:23:43;17.89;50.63
73112;HTU21D;61301;51.956;5.876;2023-03-23T10:28:46;17.91;51.01
73112;HTU21D;61301;51.956;5.876;2023-03-23T10:31:19;18.10;50.53
73112;HTU21D;61301;51.956;5.876;2023-03-23T10:33:49;18.23;50.27
73112;HTU21D;61301;51.956;5.876;2023-03-23T10:36:30;18.13;49.26
73112;HTU21D;61301;51.956;5.876;2023-03-23T10:39:12;18.04;50.43
73112;HTU21D;61301;51.956;5.876;2023-03-23T10:41:38;18.11;49.99
73112;HTU21D;61301;51.956;5.876;2023-03-23T10:44:10;18.22;49.90
73112;HTU21D;61301;51.956;5.876;2023-03-23T10:46:59;18.39;49.44
73112;HTU21D;61301;51.956;5.876;2023-03-23T10:49:30;18.68;49.15
73112;HTU21D;61301;51.956;5.876;2023-03-23T10:52:01;18.85;49.15
73112;HTU21D;61301;51.956;5.876;2023-03-23T10:54:38;19.10;47.79
73112;HTU21D;61301;51.956;5.876;2023-03-23T10:57:26;19.03;46.31
73112;HTU21D;61301;51.956;5.876;2023-03-23T11:00:14;19.01;46.46
73112;HTU21D;61301;51.956;5.876;2023-03-23T11:02:44;18.94;47.07
73112;HTU21D;61301;51.956;5.876;2023-03-23T11:05:20;18.80;48.02
73112;HTU21D;61301;51.956;5.876;2023-03-23T11:07:52;18.79;47.02
73112;HTU21D;61301;51.956;5.876;2023-03-23T11:13:00;18.52;47.79
73112;HTU21D;61301;51.956;5.876;2023-03-23T11:15:33;18.44;47.50
73112;HTU21D;61301;51.956;5.876;2023-03-23T11:18:04;18.53;46.60
73112;HTU21D;61301;51.956;5.876;2023-03-23T11:20:36;18.48;47.19
73112;HTU21D;61301;51.956;5.876;2023-03-23T11:28:32;18.56;47.49
73112;HTU21D;61301;51.956;5.876;2023-03-23T11:31:01;18.58;47.23
73112;HTU21D;61301;51.956;5.876;2023-03-23T11:36:13;18.87;47.02
73112;HTU21D;61301;51.956;5.876;2023-03-23T11:38:43;19.06;47.47
73112;HTU21D;61301;51.956;5.876;2023-03-23T11:41:11;19.09;47.42
73112;HTU21D;61301;51.956;5.876;2023-03-23T11:43:44;18.92;47.22
73112;HTU21D;61301;51.956;5.876;2023-03-23T11:46:18;18.64;47.29
73112;HTU21D;61301;51.956;5.876;2023-03-23T11:49:05;18.52;48.08
73112;HTU21D;61301;51.956;5.876;2023-03-23T11:51:42;18.27;48.41
73112;HTU21D;61301;51.956;5.876;2023-03-23T11:54:20;18.17;49.44
73112;HTU21D;61301;51.956;5.876;2023-03-23T11:56:49;18.26;49.75
73112;HTU21D;61301;51.956;5.876;2023-03-23T11:59:28;18.34;49.27
73112;HTU21D;61301;51.956;5.876;2023-03-23T12:02:19;18.26;50.06
73112;HTU21D;61301;51.956;5.876;2023-03-23T12:05:00;18.19;50.79
73112;HTU21D;61301;51.956;5.876;2023-03-23T12:11:13;18.07;52.29
73112;HTU21D;61301;51.956;5.876;2023-03-23T12:19:06;17.96;53.42
73112;HTU21D;61301;51.956;5.876;2023-03-23T12:29:39;18.40;50.88
73112;HTU21D;61301;51.956;5.876;2023-03-23T12:40:33;19.07;49.83
73112;HTU21D;61301;51.956;5.876;2023-03-23T12:43:04;19.00;48.53
73112;HTU21D;61301;51.956;5.876;2023-03-23T12:46:01;19.00;48.12
73112;HTU21D;61301;51.956;5.876;2023-03-23T12:48:33;18.89;47.37
73112;HTU21D;61301;51.956;5.876;2023-03-23T12:53:52;18.68;46.75
73112;HTU21D;61301;51.956;5.876;2023-03-23T13:01:45;18.34;51.79
73112;HTU21D;61301;51.956;5.876;2023-03-23T13:04:23;18.08;53.76
73112;HTU21D;61301;51.956;5.876;2023-03-23T13:06:52;18.06;53.71
73112;HTU21D;61301;51.956;5.876;2023-03-23T13:09:30;17.81;55.80
73112;HTU21D;61301;51.956;5.876;2023-03-23T13:11:59;17.52;56.53
73112;HTU21D;61301;51.956;5.876;2023-03-23T13:14:43;17.41;57.61
73112;HTU21D;61301;51.956;5.876;2023-03-23T13:28:02;17.10;58.71
73112;HTU21D;61301;51.956;5.876;2023-03-23T13:30:29;17.05;58.10
73112;HTU21D;61301;51.956;5.876;2023-03-23T13:33:06;17.06;57.99
73112;HTU21D;61301;51.956;5.876;2023-03-23T13:35:38;17.03;59.05
73112;HTU21D;61301;51.956;5.876;2023-03-23T13:38:17;17.29;57.91
73112;HTU21D;61301;51.956;5.876;2023-03-23T13:40:45;17.56;56.98
73112;HTU21D;61301;51.956;5.876;2023-03-23T13:43:12;17.77;56.84
73112;HTU21D;61301;51.956;5.876;2023-03-23T13:45:47;17.95;56.33
73112;HTU21D;61301;51.956;5.876;2023-03-23T13:50:58;18.07;56.27
73112;HTU21D;61301;51.956;5.876;2023-03-23T13:53:44;18.14;56.32
73112;HTU21D;61301;51.956;5.876;2023-03-23T13:56:17;18.28;55.84
73112;HTU21D;61301;51.956;5.876;2023-03-23T13:58:50;18.23;54.94
73112;HTU21D;61301;51.956;5.876;2023-03-23T14:01:33;18.13;55.65
73112;HTU21D;61301;51.956;5.876;2023-03-23T14:04:04;17.96;56.11
73112;HTU21D;61301;51.956;5.876;2023-03-23T14:06:35;17.84;55.61
73112;HTU21D;61301;51.956;5.876;2023-03-23T14:09:25;17.82;55.97
73112;HTU21D;61301;51.956;5.876;2023-03-23T14:12:01;17.83;56.47
73112;HTU21D;61301;51.956;5.876;2023-03-23T14:14:43;17.77;56.43
73112;HTU21D;61301;51.956;5.876;2023-03-23T14:17:24;17.78;56.36
73112;HTU21D;61301;51.956;5.876;2023-03-23T14:19:53;17.73;57.00
73112;HTU21D;61301;51.956;5.876;2023-03-23T14:22:36;17.68;56.88
73112;HTU21D;61301;51.956;5.876;2023-03-23T14:25:15;17.59;57.42
73112;HTU21D;61301;51.956;5.876;2023-03-23T14:27:43;17.47;58.28
73112;HTU21D;61301;51.956;5.876;2023-03-23T14:30:15;17.60;58.94
73112;HTU21D;61301;51.956;5.876;2023-03-23T14:32:42;17.55;58.11
73112;HTU21D;61301;51.956;5.876;2023-03-23T14:35:14;17.65;58.18
73112;HTU21D;61301;51.956;5.876;2023-03-23T14:37:42;17.94;57.71
73112;HTU21D;61301;51.956;5.876;2023-03-23T14:40:13;18.32;56.97
73112;HTU21D;61301;51.956;5.876;2023-03-23T14:42:39;18.66;55.04
73112;HTU21D;61301;51.956;5.876;2023-03-23T14:45:06;19.05;53.78
73112;HTU21D;61301;51.956;5.876;2023-03-23T14:47:35;19.43;53.23
73112;HTU21D;61301;51.956;5.876;2023-03-23T14:50:18;19.33;51.52
73112;HTU21D;61301;51.956;5.876;2023-03-23T14:52:47;19.50;50.72
73112;HTU21D;61301;51.956;5.876;2023-03-23T14:55:20;19.56;49.20
73112;HTU21D;61301;51.956;5.876;2023-03-23T14:57:48;19.83;46.54
73112;HTU21D;61301;51.956;5.876;2023-03-23T15:00:22;19.88;45.87
73112;HTU21D;61301;51.956;5.876;2023-03-23T15:02:54;19.90;45.01
73112;HTU21D;61301;51.956;5.876;2023-03-23T15:05:35;19.97;44.90
73112;HTU21D;61301;51.956;5.876;2023-03-23T15:08:06;20.15;45.60
73112;HTU21D;61301;51.956;5.876;2023-03-23T15:10:33;20.20;44.38
73112;HTU21D;61301;51.956;5.876;2023-03-23T15:12:59;20.29;44.18
73112;HTU21D;61301;51.956;5.876;2023-03-23T15:15:33;20.33;43.51
73112;HTU21D;61301;51.956;5.876;2023-03-23T15:18:01;20.27;44.52
73112;HTU21D;61301;51.956;5.876;2023-03-23T15:20:43;20.19;44.75
73112;HTU21D;61301;51.956;5.876;2023-03-23T15:23:15;20.34;43.85
73112;HTU21D;61301;51.956;5.876;2023-03-23T15:25:48;20.40;44.20
73112;HTU21D;61301;51.956;5.876;2023-03-23T15:28:18;20.26;44.42
73112;HTU21D;61301;51.956;5.876;2023-03-23T15:30:53;20.09;44.73
73112;HTU21D;61301;51.956;5.876;2023-03-23T15:33:20;19.98;45.54
73112;HTU21D;61301;51.956;5.876;2023-03-23T15:35:54;19.91;46.12
73112;HTU21D;61301;51.956;5.876;2023-03-23T15:38:30;19.82;45.76
73112;HTU21D;61301;51.956;5.876;2023-03-23T15:40:59;19.66;45.96
73112;HTU21D;61301;51.956;5.876;2023-03-23T15:43:33;19.63;46.79
73112;HTU21D;61301;51.956;5.876;2023-03-23T15:48:33;19.83;47.83
73112;HTU21D;61301;51.956;5.876;2023-03-23T15:51:02;19.79;48.19
73112;HTU21D;61301;51.956;5.876;2023-03-23T15:53:37;19.85;47.67
73112;HTU21D;61301;51.956;5.876;2023-03-23T15:56:08;19.97;48.12
73112;HTU21D;61301;51.956;5.876;2023-03-23T15:58:35;19.99;47.12
73112;HTU21D;61301;51.956;5.876;2023-03-23T16:01:03;19.75;47.42
73112;HTU21D;61301;51.956;5.876;2023-03-23T16:03:51;19.66;47.25
73112;HTU21D;61301;51.956;5.876;2023-03-23T16:06:21;19.52;48.49
73112;HTU21D;61301;51.956;5.876;2023-03-23T16:08:47;19.53;48.57
73112;HTU21D;61301;51.956;5.876;2023-03-23T16:11:15;19.62;48.41
73112;HTU21D;61301;51.956;5.876;2023-03-23T16:13:42;19.69;47.71
73112;HTU21D;61301;51.956;5.876;2023-03-23T16:16:20;19.70;46.13
73112;HTU21D;61301;51.956;5.876;2023-03-23T16:18:47;19.56;46.58
73112;HTU21D;61301;51.956;5.876;2023-03-23T16:21:13;19.40;46.97
73112;HTU21D;61301;51.956;5.876;2023-03-23T16:23:39;19.55;46.43
73112;HTU21D;61301;51.956;5.876;2023-03-23T16:26:06;19.74;46.62
73112;HTU21D;61301;51.956;5.876;2023-03-23T16:28:32;19.86;45.64
73112;HTU21D;61301;51.956;5.876;2023-03-23T16:30:58;20.02;45.47
73112;HTU21D;61301;51.956;5.876;2023-03-23T16:33:24;20.05;45.20
73112;HTU21D;61301;51.956;5.876;2023-03-23T16:35:51;20.20;45.05
73112;HTU21D;61301;51.956;5.876;2023-03-23T16:38:17;20.31;45.09
73112;HTU21D;61301;51.956;5.876;2023-03-23T16:40:44;20.48;44.67
73112;HTU21D;61301;51.956;5.876;2023-03-23T16:43:11;20.25;44.93
73112;HTU21D;61301;51.956;5.876;2023-03-23T16:45:39;19.98;46.08
73112;HTU21D;61301;51.956;5.876;2023-03-23T16:48:06;19.48;46.34
73112;HTU21D;61301;51.956;5.876;2023-03-23T16:50:35;19.32;47.16
73112;HTU21D;61301;51.956;5.876;2023-03-23T16:53:02;19.30;47.40
73112;HTU21D;61301;51.956;5.876;2023-03-23T16:55:29;19.22;47.82
73112;HTU21D;61301;51.956;5.876;2023-03-23T16:57:57;19.12;48.10
73112;HTU21D;61301;51.956;5.876;2023-03-23T17:00:24;18.98;48.12
73112;HTU21D;61301;51.956;5.876;2023-03-23T17:02:53;18.95;48.50
73112;HTU21D;61301;51.956;5.876;2023-03-23T17:05:23;18.80;48.71
73112;HTU21D;61301;51.956;5.876;2023-03-23T17:07:49;18.84;49.10
73112;HTU21D;61301;51.956;5.876;2023-03-23T17:10:15;18.79;49.17
73112;HTU21D;61301;51.956;5.876;2023-03-23T17:12:42;18.67;49.60
73112;HTU21D;61301;51.956;5.876;2023-03-23T17:15:09;18.67;49.89
73112;HTU21D;61301;51.956;5.876;2023-03-23T17:17:36;18.73;49.82
73112;HTU21D;61301;51.956;5.876;2023-03-23T17:20:03;18.86;49.65